sensor_id;sensor_type;location;lat;lon;timestamp;pressure;altitude;pressure_sealevel;temperature;humidity
78990;BME280;68390;52.130;21.218;2023-12-20T00:00:12;99757.03;;;5.03;100.00
78990;BME280;68390;52.130;21.218;2023-12-20T00:02:38;99754.31;;;5.03;100.00
78990;BME280;68390;52.130;21.218;2023-12-20T00:05:04;99748.88;;;5.03;100.00
78990;BME280;68390;52.130;21.218;2023-12-20T00:07:29;99751.59;;;5.03;100.00
78990;BME280;68390;52.130;21.218;2023-12-20T00:09:55;99749.72;;;5.04;100.00
78990;BME280;68390;52.130;21.218;2023-12-20T00:12:20;99743.41;;;5.03;100.00
78990;BME280;68390;52.130;21.218;2023-12-20T00:14:45;99747.56;;;5.07;100.00
78990;BME280;68390;52.130;21.218;2023-12-20T00:17:11;99736.81;;;5.06;100.00
78990;BME280;68390;52.130;21.218;2023-12-20T00:19:36;99740.09;;;5.09;100.00
78990;BME280;68390;52.130;21.218;2023-12-20T00:22:02;99739.22;;;5.09;100.00
78990;BME280;68390;52.130;21.218;2023-12-20T00:24:27;99739.22;;;5.09;100.00
78990;BME280;68390;52.130;21.218;2023-12-20T00:26:52;99738.41;;;5.08;100.00
78990;BME280;68390;52.130;21.218;2023-12-20T00:29:18;99741.78;;;5.10;100.00
78990;BME280;68390;52.130;21.218;2023-12-20T00:31:43;99731.06;;;5.09;100.00
78990;BME280;68390;52.130;21.218;2023-12-20T00:34:09;99730.22;;;5.08;100.00
78990;BME280;68390;52.130;21.218;2023-12-20T00:36:34;99738.22;;;5.10;100.00
78990;BME280;68390;52.130;21.218;2023-12-20T00:39:00;99722.66;;;5.02;100.00
78990;BME280;68390;52.130;21.218;2023-12-20T00:41:25;99720.16;;;5.09;100.00
78990;BME280;68390;52.130;21.218;2023-12-20T00:43:50;99721.59;;;5.13;100.00
78990;BME280;68390;52.130;21.218;2023-12-20T00:46:16;99706.75;;;5.07;100.00
78990;BME280;68390;52.130;21.218;2023-12-20T00:48:41;99719.34;;;5.08;100.00
78990;BME280;68390;52.130;21.218;2023-12-20T00:51:07;99721.03;;;5.09;100.00
78990;BME280;68390;52.130;21.218;2023-12-20T00:53:33;99713.91;;;5.08;100.00
78990;BME280;68390;52.130;21.218;2023-12-20T00:55:58;99710.16;;;5.09;100.00
78990;BME280;68390;52.130;21.218;2023-12-20T00:58:24;99710.16;;;5.09;100.00
78990;BME280;68390;52.130;21.218;2023-12-20T01:00:49;99711.88;;;5.10;100.00
78990;BME280;68390;52.130;21.218;2023-12-20T01:03:14;99707.28;;;5.11;100.00
78990;BME280;68390;52.130;21.218;2023-12-20T01:05:40;99705.56;;;5.10;100.00
78990;BME280;68390;52.130;21.218;2023-12-20T01:08:06;99704.41;;;5.12;100.00
78990;BME280;68390;52.130;21.218;2023-12-20T01:10:31;99698.41;;;5.09;100.00
78990;BME280;68390;52.130;21.218;2023-12-20T01:12:57;99700.13;;;5.10;100.00
78990;BME280;68390;52.130;21.218;2023-12-20T01:15:22;99699.13;;;5.11;100.00
78990;BME280;68390;52.130;21.218;2023-12-20T01:17:48;99695.53;;;5.10;100.00
78990;BME280;68390;52.130;21.218;2023-12-20T01:20:14;99698.25;;;5.10;100.00
78990;BME280;68390;52.130;21.218;2023-12-20T01:22:40;99692.81;;;5.10;100.00
78990;BME280;68390;52.130;21.218;2023-12-20T01:25:05;99692.81;;;5.10;100.00
78990;BME280;68390;52.130;21.218;2023-12-20T01:27:32;99684.66;;;5.10;100.00
78990;BME280;68390;52.130;21.218;2023-12-20T01:29:57;99688.94;;;5.13;100.00
78990;BME280;68390;52.130;21.218;2023-12-20T01:32:22;99693.53;;;5.12;100.00
78990;BME280;68390;52.130;21.218;2023-12-20T01:34:48;99690.66;;;5.14;100.00
78990;BME280;68390;52.130;21.218;2023-12-20T01:37:14;99681.78;;;5.12;100.00
78990;BME280;68390;52.130;21.218;2023-12-20T01:39:39;99686.22;;;5.13;100.00
78990;BME280;68390;52.130;21.218;2023-12-20T01:42:04;99685.50;;;5.11;100.00
78990;BME280;68390;52.130;21.218;2023-12-20T01:44:30;99681.78;;;5.12;100.00
78990;BME280;68390;52.130;21.218;2023-12-20T01:46:56;99672.75;;;5.11;100.00
78990;BME280;68390;52.130;21.218;2023-12-20T01:49:21;99674.47;;;5.12;100.00
78990;BME280;68390;52.130;21.218;2023-12-20T01:51:47;99663.75;;;5.11;100.00
78990;BME280;68390;52.130;21.218;2023-12-20T01:54:13;99667.16;;;5.13;100.00
78990;BME280;68390;52.130;21.218;2023-12-20T01:56:39;99665.59;;;5.10;100.00
78990;BME280;68390;52.130;21.218;2023-12-20T01:59:06;99666.47;;;5.11;100.00
78990;BME280;68390;52.130;21.218;2023-12-20T02:01:32;99669.34;;;5.09;100.00
78990;BME280;68390;52.130;21.218;2023-12-20T02:03:59;99666.59;;;5.09;100.00
78990;BME280;68390;52.130;21.218;2023-12-20T02:06:29;99659.47;;;5.08;100.00
78990;BME280;68390;52.130;21.218;2023-12-20T02:08:55;99648.91;;;5.05;100.00
78990;BME280;68390;52.130;21.218;2023-12-20T02:11:21;99652.00;;;5.10;100.00
78990;BME280;68390;52.130;21.218;2023-12-20T02:13:46;99657.44;;;5.10;100.00
78990;BME280;68390;52.130;21.218;2023-12-20T02:16:12;99649.41;;;5.09;100.00
78990;BME280;68390;52.130;21.218;2023-12-20T02:18:37;99644.16;;;5.07;100.00
78990;BME280;68390;52.130;21.218;2023-12-20T02:21:05;99638.00;;;5.05;100.00
78990;BME280;68390;52.130;21.218;2023-12-20T02:23:31;99648.91;;;5.05;100.00
78990;BME280;68390;52.130;21.218;2023-12-20T02:25:56;99640.72;;;5.05;100.00
78990;BME280;68390;52.130;21.218;2023-12-20T02:28:21;99638.47;;;5.01;100.00
78990;BME280;68390;52.130;21.218;2023-12-20T02:30:47;99634.88;;;5.00;100.00
78990;BME280;68390;52.130;21.218;2023-12-20T02:33:15;99636.16;;;5.06;100.00
78990;BME280;68390;52.130;21.218;2023-12-20T02:35:41;99633.56;;;5.04;100.00
78990;BME280;68390;52.130;21.218;2023-12-20T02:38:06;99637.72;;;5.08;100.00
78990;BME280;68390;52.130;21.218;2023-12-20T02:40:32;99638.72;;;5.07;100.00
78990;BME280;68390;52.130;21.218;2023-12-20T02:42:58;99631.72;;;5.05;100.00
78990;BME280;68390;52.130;21.218;2023-12-20T02:45:26;99629.69;;;5.07;100.00
78990;BME280;68390;52.130;21.218;2023-12-20T02:47:52;99634.28;;;5.06;100.00
78990;BME280;68390;52.130;21.218;2023-12-20T02:50:17;99626.84;;;5.08;100.00
78990;BME280;68390;52.130;21.218;2023-12-20T02:52:45;99622.22;;;5.09;100.00
78990;BME280;68390;52.130;21.218;2023-12-20T02:55:10;99623.06;;;5.09;100.00
78990;BME280;68390;52.130;21.218;2023-12-20T02:57:36;99628.50;;;5.09;100.00
78990;BME280;68390;52.130;21.218;2023-12-20T03:00:02;99628.69;;;5.08;100.00
78990;BME280;68390;52.130;21.218;2023-12-20T03:02:27;99616.94;;;5.07;100.00
78990;BME280;68390;52.130;21.218;2023-12-20T03:04:52;99620.69;;;5.06;100.00
78990;BME280;68390;52.130;21.218;2023-12-20T03:07:18;99615.94;;;5.08;100.00
78990;BME280;68390;52.130;21.218;2023-12-20T03:09:43;99618.66;;;5.08;100.00
78990;BME280;68390;52.130;21.218;2023-12-20T03:12:09;99617.09;;;5.06;100.00
78990;BME280;68390;52.130;21.218;2023-12-20T03:14:34;99621.38;;;5.08;100.00
78990;BME280;68390;52.130;21.218;2023-12-20T03:16:59;99615.09;;;5.08;100.00
78990;BME280;68390;52.130;21.218;2023-12-20T03:19:25;99609.66;;;5.08;100.00
78990;BME280;68390;52.130;21.218;2023-12-20T03:21:50;99603.16;;;5.09;100.00
78990;BME280;68390;52.130;21.218;2023-12-20T03:24:15;99601.63;;;5.06;100.00
78990;BME280;68390;52.130;21.218;2023-12-20T03:26:41;99599.91;;;5.05;100.00
78990;BME280;68390;52.130;21.218;2023-12-20T03:29:06;99611.31;;;5.09;100.00
78990;BME280;68390;52.130;21.218;2023-12-20T03:31:32;99609.78;;;5.06;100.00
78990;BME280;68390;52.130;21.218;2023-12-20T03:33:57;99606.22;;;5.06;100.00
78990;BME280;68390;52.130;21.218;2023-12-20T03:36:23;99603.25;;;4.99;100.00
78990;BME280;68390;52.130;21.218;2023-12-20T03:38:48;99604.50;;;5.05;100.00
78990;BME280;68390;52.130;21.218;2023-12-20T03:41:13;99590.69;;;4.98;100.00
78990;BME280;68390;52.130;21.218;2023-12-20T03:43:39;99589.47;;;5.01;100.00
78990;BME280;68390;52.130;21.218;2023-12-20T03:46:04;99593.78;;;5.03;100.00
78990;BME280;68390;52.130;21.218;2023-12-20T03:48:31;99595.47;;;5.04;100.00
78990;BME280;68390;52.130;21.218;2023-12-20T03:50:57;99583.19;;;5.00;100.00
78990;BME280;68390;52.130;21.218;2023-12-20T03:53:22;99578.94;;;4.98;100.00
78990;BME280;68390;52.130;21.218;2023-12-20T03:55:48;99590.19;;;5.03;100.00
78990;BME280;68390;52.130;21.218;2023-12-20T03:58:13;99604.50;;;5.05;100.00
78990;BME280;68390;52.130;21.218;2023-12-20T04:00:38;99599.22;;;5.03;100.00
78990;BME280;68390;52.130;21.218;2023-12-20T04:03:04;99598.34;;;5.03;100.00
78990;BME280;68390;52.130;21.218;2023-12-20T04:05:29;99603.94;;;5.01;100.00
78990;BME280;68390;52.130;21.218;2023-12-20T04:07:55;99589.34;;;5.02;100.00
78990;BME280;68390;52.130;21.218;2023-12-20T04:10:20;99576.75;;;5.01;100.00
78990;BME280;68390;52.130;21.218;2023-12-20T04:12:45;99563.13;;;5.01;100.00
78990;BME280;68390;52.130;21.218;2023-12-20T04:15:11;99578.59;;;5.01;100.00
78990;BME280;68390;52.130;21.218;2023-12-20T04:17:37;99597.81;;;4.99;100.00
78990;BME280;68390;52.130;21.218;2023-12-20T04:20:03;99586.25;;;4.97;100.00
78990;BME280;68390;52.130;21.218;2023-12-20T04:22:28;99587.94;;;4.98;100.00
78990;BME280;68390;52.130;21.218;2023-12-20T04:24:53;99587.94;;;4.98;100.00
78990;BME280;68390;52.130;21.218;2023-12-20T04:27:19;99593.41;;;4.98;100.00
78990;BME280;68390;52.130;21.218;2023-12-20T04:29:44;99588.25;;;4.95;100.00
78990;BME280;68390;52.130;21.218;2023-12-20T04:32:10;99590.81;;;4.97;100.00
78990;BME280;68390;52.130;21.218;2023-12-20T04:34:36;99591.84;;;4.96;100.00
78990;BME280;68390;52.130;21.218;2023-12-20T04:37:01;99578.09;;;4.97;100.00
78990;BME280;68390;52.130;21.218;2023-12-20T04:39:27;99587.25;;;4.96;100.00
78990;BME280;68390;52.130;21.218;2023-12-20T04:41:52;99592.69;;;4.96;100.00
78990;BME280;68390;52.130;21.218;2023-12-20T04:44:18;99584.53;;;4.96;100.00
78990;BME280;68390;52.130;21.218;2023-12-20T04:46:43;99598.13;;;4.96;100.00
78990;BME280;68390;52.130;21.218;2023-12-20T04:49:09;99595.41;;;4.96;100.00
78990;BME280;68390;52.130;21.218;2023-12-20T04:51:35;99590.81;;;4.97;100.00
78990;BME280;68390;52.130;21.218;2023-12-20T04:54:01;99591.84;;;4.96;100.00
78990;BME280;68390;52.130;21.218;2023-12-20T04:56:27;99593.84;;;4.94;100.00
78990;BME280;68390;52.130;21.218;2023-12-20T04:58:52;99592.69;;;4.96;100.00
78990;BME280;68390;52.130;21.218;2023-12-20T05:01:17;99588.25;;;4.95;100.00
78990;BME280;68390;52.130;21.218;2023-12-20T05:03:43;99594.69;;;4.94;100.00
78990;BME280;68390;52.130;21.218;2023-12-20T05:06:09;99586.53;;;4.94;100.00
78990;BME280;68390;52.130;21.218;2023-12-20T05:08:35;99583.53;;;4.97;100.00
78990;BME280;68390;52.130;21.218;2023-12-20T05:11:00;99583.34;;;4.99;100.00
78990;BME280;68390;52.130;21.218;2023-12-20T05:13:25;99565.34;;;4.98;100.00
78990;BME280;68390;52.130;21.218;2023-12-20T05:15:51;99569.59;;;5.00;100.00
78990;BME280;68390;52.130;21.218;2023-12-20T05:18:16;99562.75;;;4.96;100.00
78990;BME280;68390;52.130;21.218;2023-12-20T05:20:42;99574.00;;;5.01;100.00
78990;BME280;68390;52.130;21.218;2023-12-20T05:23:07;99561.75;;;4.97;100.00
78990;BME280;68390;52.130;21.218;2023-12-20T05:25:32;99568.56;;;5.01;100.00
78990;BME280;68390;52.130;21.218;2023-12-20T05:27:58;99564.84;;;5.02;100.00
78990;BME280;68390;52.130;21.218;2023-12-20T05:30:23;99558.41;;;5.03;100.00
78990;BME280;68390;52.130;21.218;2023-12-20T05:32:49;99573.56;;;5.06;100.00
78990;BME280;68390;52.130;21.218;2023-12-20T05:35:14;99561.81;;;5.05;100.00
78990;BME280;68390;52.130;21.218;2023-12-20T05:37:41;99552.97;;;5.03;100.00
78990;BME280;68390;52.130;21.218;2023-12-20T05:40:06;99555.69;;;5.03;100.00
78990;BME280;68390;52.130;21.218;2023-12-20T05:42:35;99565.41;;;5.06;100.00
78990;BME280;68390;52.130;21.218;2023-12-20T05:45:01;99572.84;;;5.04;100.00
78990;BME280;68390;52.130;21.218;2023-12-20T05:47:26;99560.13;;;5.04;100.00
78990;BME280;68390;52.130;21.218;2023-12-20T05:49:51;99557.53;;;5.03;100.00
78990;BME280;68390;52.130;21.218;2023-12-20T05:52:17;99565.56;;;5.04;100.00
78990;BME280;68390;52.130;21.218;2023-12-20T05:54:42;99572.72;;;5.05;100.00
78990;BME280;68390;52.130;21.218;2023-12-20T05:57:08;99566.41;;;5.05;100.00
78990;BME280;68390;52.130;21.218;2023-12-20T05:59:33;99561.28;;;5.02;100.00
78990;BME280;68390;52.130;21.218;2023-12-20T06:01:58;99562.97;;;5.03;100.00
78990;BME280;68390;52.130;21.218;2023-12-20T06:04:24;99558.41;;;5.03;100.00
78990;BME280;68390;52.130;21.218;2023-12-20T06:06:49;99560.25;;;5.03;100.00
78990;BME280;68390;52.130;21.218;2023-12-20T06:09:14;99555.53;;;5.05;100.00
78990;BME280;68390;52.130;21.218;2023-12-20T06:11:40;99552.09;;;5.03;100.00
78990;BME280;68390;52.130;21.218;2023-12-20T06:14:06;99548.69;;;5.01;100.00
78990;BME280;68390;52.130;21.218;2023-12-20T06:16:31;99554.97;;;5.01;100.00
78990;BME280;68390;52.130;21.218;2023-12-20T06:18:57;99557.69;;;5.01;100.00
78990;BME280;68390;52.130;21.218;2023-12-20T06:21:22;99551.53;;;4.99;100.00
78990;BME280;68390;52.130;21.218;2023-12-20T06:23:47;99567.56;;;5.02;100.00
78990;BME280;68390;52.130;21.218;2023-12-20T06:26:13;99552.59;;;4.98;100.00
78990;BME280;68390;52.130;21.218;2023-12-20T06:28:38;99562.75;;;4.96;100.00
78990;BME280;68390;52.130;21.218;2023-12-20T06:31:04;99571.06;;;4.95;100.00
78990;BME280;68390;52.130;21.218;2023-12-20T06:33:29;99572.31;;;5.00;100.00
78990;BME280;68390;52.130;21.218;2023-12-20T06:35:56;99567.56;;;5.02;100.00
78990;BME280;68390;52.130;21.218;2023-12-20T06:38:22;99570.44;;;5.01;100.00
78990;BME280;68390;52.130;21.218;2023-12-20T06:40:47;99570.44;;;5.01;100.00
78990;BME280;68390;52.130;21.218;2023-12-20T06:43:13;99570.78;;;4.98;100.00
78990;BME280;68390;52.130;21.218;2023-12-20T06:45:38;99569.06;;;4.97;100.00
78990;BME280;68390;52.130;21.218;2023-12-20T06:48:04;99569.91;;;4.97;100.00
78990;BME280;68390;52.130;21.218;2023-12-20T06:50:30;99569.91;;;4.97;100.00
78990;BME280;68390;52.130;21.218;2023-12-20T06:52:56;99568.91;;;4.98;100.00
78990;BME280;68390;52.130;21.218;2023-12-20T06:55:21;99573.31;;;4.99;100.00
78990;BME280;68390;52.130;21.218;2023-12-20T06:57:46;99562.75;;;4.96;100.00
78990;BME280;68390;52.130;21.218;2023-12-20T07:00:12;99572.63;;;4.97;100.00
78990;BME280;68390;52.130;21.218;2023-12-20T07:02:38;99567.88;;;4.99;100.00
78990;BME280;68390;52.130;21.218;2023-12-20T07:05:03;99571.44;;;5.00;100.00
78990;BME280;68390;52.130;21.218;2023-12-20T07:07:29;99569.59;;;5.00;100.00
78990;BME280;68390;52.130;21.218;2023-12-20T07:09:55;99560.75;;;4.98;100.00
78990;BME280;68390;52.130;21.218;2023-12-20T07:12:20;99560.25;;;5.03;100.00
78990;BME280;68390;52.130;21.218;2023-12-20T07:14:46;99571.00;;;5.04;100.00
78990;BME280;68390;52.130;21.218;2023-12-20T07:17:12;99566.19;;;4.98;100.00
78990;BME280;68390;52.130;21.218;2023-12-20T07:19:41;99571.28;;;5.01;100.00
78990;BME280;68390;52.130;21.218;2023-12-20T07:22:07;99569.59;;;5.00;100.00
78990;BME280;68390;52.130;21.218;2023-12-20T07:24:33;99573.88;;;5.03;100.00
78990;BME280;68390;52.130;21.218;2023-12-20T07:26:59;99580.16;;;5.03;100.00
78990;BME280;68390;52.130;21.218;2023-12-20T07:29:25;99577.59;;;5.02;100.00
78990;BME280;68390;52.130;21.218;2023-12-20T07:31:50;99587.31;;;5.04;100.00
78990;BME280;68390;52.130;21.218;2023-12-20T07:34:17;99570.13;;;5.04;100.00
78990;BME280;68390;52.130;21.218;2023-12-20T07:36:43;99572.72;;;5.05;100.00
78990;BME280;68390;52.130;21.218;2023-12-20T07:39:08;99578.16;;;5.05;100.00
78990;BME280;68390;52.130;21.218;2023-12-20T07:41:34;99574.44;;;5.06;100.00
78990;BME280;68390;52.130;21.218;2023-12-20T07:43:59;99563.69;;;5.05;100.00
78990;BME280;68390;52.130;21.218;2023-12-20T07:46:25;99574.44;;;5.06;100.00
78990;BME280;68390;52.130;21.218;2023-12-20T07:48:50;99575.28;;;5.07;100.00
78990;BME280;68390;52.130;21.218;2023-12-20T07:51:16;99558.09;;;5.06;100.00
78990;BME280;68390;52.130;21.218;2023-12-20T07:53:41;99575.28;;;5.07;100.00
78990;BME280;68390;52.130;21.218;2023-12-20T07:56:17;99554.66;;;5.04;100.00
78990;BME280;68390;52.130;21.218;2023-12-20T07:58:43;99573.22;;;5.09;100.00
78990;BME280;68390;52.130;21.218;2023-12-20T08:01:10;99565.25;;;5.07;100.00
78990;BME280;68390;52.130;21.218;2023-12-20T08:03:35;99572.94;;;5.12;100.00
78990;BME280;68390;52.130;21.218;2023-12-20T08:06:02;99573.22;;;5.09;100.00
78990;BME280;68390;52.130;21.218;2023-12-20T08:08:27;99589.97;;;5.14;100.00
78990;BME280;68390;52.130;21.218;2023-12-20T08:10:53;99569.50;;;5.10;100.00
78990;BME280;68390;52.130;21.218;2023-12-20T08:13:18;99568.50;;;5.11;100.00
78990;BME280;68390;52.130;21.218;2023-12-20T08:15:44;99572.06;;;5.11;100.00
78990;BME280;68390;52.130;21.218;2023-12-20T08:18:09;99570.34;;;5.10;100.00
78990;BME280;68390;52.130;21.218;2023-12-20T08:20:35;99563.19;;;5.09;100.00
78990;BME280;68390;52.130;21.218;2023-12-20T08:23:00;99568.66;;;5.09;100.00
78990;BME280;68390;52.130;21.218;2023-12-20T08:25:26;99566.31;;;5.14;100.00
78990;BME280;68390;52.130;21.218;2023-12-20T08:27:52;99565.63;;;5.12;100.00
78990;BME280;68390;52.130;21.218;2023-12-20T08:30:18;99556.09;;;5.08;100.00
78990;BME280;68390;52.130;21.218;2023-12-20T08:32:45;99567.50;;;5.12;100.00
78990;BME280;68390;52.130;21.218;2023-12-20T08:35:11;99557.16;;;5.15;100.00
78990;BME280;68390;52.130;21.218;2023-12-20T08:37:37;99551.66;;;5.07;100.00
78990;BME280;68390;52.130;21.218;2023-12-20T08:40:02;99569.06;;;5.14;100.00
78990;BME280;68390;52.130;21.218;2023-12-20T08:42:27;99580.63;;;5.16;100.00
78990;BME280;68390;52.130;21.218;2023-12-20T08:44:59;99570.91;;;5.14;100.00
78990;BME280;68390;52.130;21.218;2023-12-20T08:47:24;99574.34;;;5.16;100.00
78990;BME280;68390;52.130;21.218;2023-12-20T08:49:50;99573.47;;;5.15;100.00
78990;BME280;68390;52.130;21.218;2023-12-20T08:52:15;99570.06;;;5.13;100.00
78990;BME280;68390;52.130;21.218;2023-12-20T08:54:41;99579.06;;;5.14;100.00
78990;BME280;68390;52.130;21.218;2023-12-20T08:57:06;99564.91;;;5.10;100.00
78990;BME280;68390;52.130;21.218;2023-12-20T08:59:32;99560.03;;;5.14;100.00
78990;BME280;68390;52.130;21.218;2023-12-20T09:01:58;99565.16;;;5.17;100.00
78990;BME280;68390;52.130;21.218;2023-12-20T09:04:23;99564.31;;;5.16;100.00
78990;BME280;68390;52.130;21.218;2023-12-20T09:06:49;99546.56;;;5.12;100.00
78990;BME280;68390;52.130;21.218;2023-12-20T09:09:14;99545.97;;;5.19;100.00
78990;BME280;68390;52.130;21.218;2023-12-20T09:11:40;99546.28;;;5.15;100.00
78990;BME280;68390;52.130;21.218;2023-12-20T09:14:05;99551.41;;;5.19;100.00
78990;BME280;68390;52.130;21.218;2023-12-20T09:16:31;99550.91;;;5.23;100.00
78990;BME280;68390;52.130;21.218;2023-12-20T09:18:57;99546.47;;;5.22;100.00
78990;BME280;68390;52.130;21.218;2023-12-20T09:21:23;99539.47;;;5.20;100.00
78990;BME280;68390;52.130;21.218;2023-12-20T09:23:48;99542.06;;;5.21;100.00
78990;BME280;68390;52.130;21.218;2023-12-20T09:26:13;99538.47;;;5.21;100.00
78990;BME280;68390;52.130;21.218;2023-12-20T09:28:39;99527.38;;;5.14;100.00
78990;BME280;68390;52.130;21.218;2023-12-20T09:31:05;99535.94;;;5.19;100.00
78990;BME280;68390;52.130;21.218;2023-12-20T09:33:32;99525.06;;;5.19;100.00
78990;BME280;68390;52.130;21.218;2023-12-20T09:35:58;99516.19;;;5.17;100.00
78990;BME280;68390;52.130;21.218;2023-12-20T09:38:23;99519.41;;;5.21;100.00
78990;BME280;68390;52.130;21.218;2023-12-20T09:40:50;99510.41;;;5.20;100.00
78990;BME280;68390;52.130;21.218;2023-12-20T09:43:18;99513.97;;;5.21;100.00
78990;BME280;68390;52.130;21.218;2023-12-20T09:45:46;99511.25;;;5.21;100.00
78990;BME280;68390;52.130;21.218;2023-12-20T09:48:12;99507.88;;;5.19;100.00
78990;BME280;68390;52.130;21.218;2023-12-20T09:50:40;99500.38;;;5.21;100.00
78990;BME280;68390;52.130;21.218;2023-12-20T09:53:08;99507.38;;;5.23;100.00
78990;BME280;68390;52.130;21.218;2023-12-20T09:55:35;99502.63;;;5.25;100.00
78990;BME280;68390;52.130;21.218;2023-12-20T09:58:01;99507.53;;;5.22;100.00
78990;BME280;68390;52.130;21.218;2023-12-20T10:00:27;99507.22;;;5.25;100.00
78990;BME280;68390;52.130;21.218;2023-12-20T10:02:58;99502.09;;;5.22;100.00
78990;BME280;68390;52.130;21.218;2023-12-20T10:05:28;99498.34;;;5.23;100.00
78990;BME280;68390;52.130;21.218;2023-12-20T10:07:54;99496.63;;;5.22;100.00
78990;BME280;68390;52.130;21.218;2023-12-20T10:10:19;99501.38;;;5.20;100.00
78990;BME280;68390;52.130;21.218;2023-12-20T10:15:26;99504.28;;;5.18;100.00
78990;BME280;68390;52.130;21.218;2023-12-20T10:17:51;99497.84;;;5.19;100.00
78990;BME280;68390;52.130;21.218;2023-12-20T10:20:17;99501.06;;;5.23;100.00
78990;BME280;68390;52.130;21.218;2023-12-20T10:22:42;99501.94;;;5.23;100.00
78990;BME280;68390;52.130;21.218;2023-12-20T10:25:08;99491.53;;;5.19;100.00
78990;BME280;68390;52.130;21.218;2023-12-20T10:27:33;99501.78;;;5.25;100.00
78990;BME280;68390;52.130;21.218;2023-12-20T10:29:59;99496.47;;;5.23;100.00
78990;BME280;68390;52.130;21.218;2023-12-20T10:32:26;99499.34;;;5.22;100.00
78990;BME280;68390;52.130;21.218;2023-12-20T10:34:53;99489.47;;;5.21;100.00
78990;BME280;68390;52.130;21.218;2023-12-20T10:37:19;99483.19;;;5.20;100.00
78990;BME280;68390;52.130;21.218;2023-12-20T10:39:49;99477.44;;;5.23;100.00
78990;BME280;68390;52.130;21.218;2023-12-20T10:42:16;99475.72;;;5.22;100.00
78990;BME280;68390;52.130;21.218;2023-12-20T10:44:42;99468.56;;;5.21;100.00
78990;BME280;68390;52.130;21.218;2023-12-20T10:47:09;99466.84;;;5.20;100.00
78990;BME280;68390;52.130;21.218;2023-12-20T10:49:36;99474.56;;;5.25;100.00
78990;BME280;68390;52.130;21.218;2023-12-20T10:52:02;99467.56;;;5.22;100.00
78990;BME280;68390;52.130;21.218;2023-12-20T10:54:29;99472.84;;;5.24;100.00
78990;BME280;68390;52.130;21.218;2023-12-20T10:56:57;99474.56;;;5.25;100.00
78990;BME280;68390;52.130;21.218;2023-12-20T10:59:24;99467.09;;;5.27;100.00
78990;BME280;68390;52.130;21.218;2023-12-20T11:01:50;99463.66;;;5.25;100.00
78990;BME280;68390;52.130;21.218;2023-12-20T11:04:23;99464.53;;;5.25;100.00
78990;BME280;68390;52.130;21.218;2023-12-20T11:06:56;99461.66;;;5.27;100.00
78990;BME280;68390;52.130;21.218;2023-12-20T11:09:28;99454.50;;;5.26;100.00
78990;BME280;68390;52.130;21.218;2023-12-20T11:12:13;99467.25;;;5.25;100.00
78990;BME280;68390;52.130;21.218;2023-12-20T11:14:52;99461.09;;;5.23;100.00
78990;BME280;68390;52.130;21.218;2023-12-20T11:17:18;99450.38;;;5.22;100.00
78990;BME280;68390;52.130;21.218;2023-12-20T11:22:26;99436.06;;;5.20;100.00
78990;BME280;68390;52.130;21.218;2023-12-20T11:24:53;99440.88;;;5.26;100.00
78990;BME280;68390;52.130;21.218;2023-12-20T11:27:19;99440.34;;;5.22;100.00
78990;BME280;68390;52.130;21.218;2023-12-20T11:29:56;99432.03;;;5.24;100.00
78990;BME280;68390;52.130;21.218;2023-12-20T11:35:01;99434.75;;;5.24;100.00
78990;BME280;68390;52.130;21.218;2023-12-20T11:37:41;99417.56;;;5.23;100.00
78990;BME280;68390;52.130;21.218;2023-12-20T11:40:17;99415.00;;;5.22;100.00
78990;BME280;68390;52.130;21.218;2023-12-20T11:42:45;99413.81;;;5.24;100.00
78990;BME280;68390;52.130;21.218;2023-12-20T11:45:15;99416.53;;;5.24;100.00
78990;BME280;68390;52.130;21.218;2023-12-20T11:47:48;99406.34;;;5.26;100.00
78990;BME280;68390;52.130;21.218;2023-12-20T11:50:20;99415.69;;;5.24;100.00
78990;BME280;68390;52.130;21.218;2023-12-20T11:52:46;99412.28;;;5.22;100.00
78990;BME280;68390;52.130;21.218;2023-12-20T11:55:11;99396.94;;;5.21;100.00
78990;BME280;68390;52.130;21.218;2023-12-20T11:57:38;99396.47;;;5.25;100.00
78990;BME280;68390;52.130;21.218;2023-12-20T12:00:04;99393.75;;;5.25;100.00
78990;BME280;68390;52.130;21.218;2023-12-20T12:02:30;99397.66;;;5.23;100.00
78990;BME280;68390;52.130;21.218;2023-12-20T12:04:56;99393.75;;;5.25;100.00
78990;BME280;68390;52.130;21.218;2023-12-20T12:07:22;99394.06;;;5.22;100.00
78990;BME280;68390;52.130;21.218;2023-12-20T12:09:47;99384.00;;;5.14;100.00
78990;BME280;68390;52.130;21.218;2023-12-20T12:12:13;99390.50;;;5.22;100.00
78990;BME280;68390;52.130;21.218;2023-12-20T12:14:39;99382.34;;;5.22;100.00
78990;BME280;68390;52.130;21.218;2023-12-20T12:17:12;99390.19;;;5.25;100.00
78990;BME280;68390;52.130;21.218;2023-12-20T12:19:39;99381.63;;;5.20;100.00
78990;BME280;68390;52.130;21.218;2023-12-20T12:22:06;99381.63;;;5.20;100.00
78990;BME280;68390;52.130;21.218;2023-12-20T12:24:46;99384.34;;;5.20;100.00
78990;BME280;68390;52.130;21.218;2023-12-20T12:27:14;99388.44;;;5.15;100.00
78990;BME280;68390;52.130;21.218;2023-12-20T12:29:40;99382.84;;;5.17;100.00
78990;BME280;68390;52.130;21.218;2023-12-20T12:32:09;99377.69;;;5.14;100.00
78990;BME280;68390;52.130;21.218;2023-12-20T12:34:35;99372.72;;;5.09;100.00
78990;BME280;68390;52.130;21.218;2023-12-20T12:37:02;99371.88;;;5.09;100.00
78990;BME280;68390;52.130;21.218;2023-12-20T12:39:29;99368.00;;;5.11;100.00
78990;BME280;68390;52.130;21.218;2023-12-20T12:41:55;99362.19;;;5.06;100.00
78990;BME280;68390;52.130;21.218;2023-12-20T12:44:21;99353.78;;;5.00;100.00
78990;BME280;68390;52.130;21.218;2023-12-20T12:46:49;99359.78;;;5.03;100.00
78990;BME280;68390;52.130;21.218;2023-12-20T12:49:21;99356.84;;;4.97;100.00
78990;BME280;68390;52.130;21.218;2023-12-20T12:51:47;99356.72;;;4.98;100.00